sensor_id;sensor_type;location;lat;lon;timestamp;pressure;altitude;pressure_sealevel;temperature;humidity
64243;BME280;50573;51.512;5.386;2023-03-26T00:07:54;100437.81;;;8.30;100.00
64243;BME280;50573;51.512;5.386;2023-03-26T00:17:57;100430.44;;;8.15;100.00
64243;BME280;50573;51.512;5.386;2023-03-26T00:28:02;100423.75;;;8.03;100.00
64243;BME280;50573;51.512;5.386;2023-03-26T00:38:06;100417.47;;;7.90;100.00
64243;BME280;50573;51.512;5.386;2023-03-26T00:48:11;100398.47;;;7.74;100.00
64243;BME280;50573;51.512;5.386;2023-03-26T00:58:14;100402.53;;;7.82;100.00
64243;BME280;50573;51.512;5.386;2023-03-26T01:08:26;100383.22;;;7.80;100.00
64243;BME280;50573;51.512;5.386;2023-03-26T01:18:31;100365.50;;;7.60;100.00
64243;BME280;50573;51.512;5.386;2023-03-26T01:28:43;100342.72;;;7.57;100.00
64243;BME280;50573;51.512;5.386;2023-03-26T01:38:48;100332.97;;;7.44;100.00
64243;BME280;50573;51.512;5.386;2023-03-26T01:48:56;100321.09;;;7.38;100.00
64243;BME280;50573;51.512;5.386;2023-03-26T01:59:07;100311.72;;;7.26;100.00
64243;BME280;50573;51.512;5.386;2023-03-26T02:09:19;100292.41;;;7.24;100.00
64243;BME280;50573;51.512;5.386;2023-03-26T02:19:24;100276.81;;;7.28;100.00
64243;BME280;50573;51.512;5.386;2023-03-26T02:29:29;100264.88;;;7.26;100.00
64243;BME280;50573;51.512;5.386;2023-03-26T02:39:32;100251.94;;;7.33;100.00
64243;BME280;50573;51.512;5.386;2023-03-26T02:49:44;100245.50;;;7.43;100.00
64243;BME280;50573;51.512;5.386;2023-03-26T02:59:54;100225.34;;;7.44;100.00
64243;BME280;50573;51.512;5.386;2023-03-26T03:10:23;100206.88;;;7.55;100.00
64243;BME280;50573;51.512;5.386;2023-03-26T03:20:54;100186.22;;;7.61;100.00
64243;BME280;50573;51.512;5.386;2023-03-26T03:30:58;100178.56;;;7.72;100.00
64243;BME280;50573;51.512;5.386;2023-03-26T03:41:07;100165.00;;;7.72;100.00
64243;BME280;50573;51.512;5.386;2023-03-26T03:51:15;100164.13;;;7.75;100.00
64243;BME280;50573;51.512;5.386;2023-03-26T04:01:30;100135.88;;;7.76;100.00
64243;BME280;50573;51.512;5.386;2023-03-26T04:11:42;100132.84;;;7.87;100.00
64243;BME280;50573;51.512;5.386;2023-03-26T04:22:12;100095.34;;;7.98;100.00
64243;BME280;50573;51.512;5.386;2023-03-26T04:32:33;100088.22;;;8.04;100.00
64243;BME280;50573;51.512;5.386;2023-03-26T04:42:39;100061.09;;;8.04;100.00
64243;BME280;50573;51.512;5.386;2023-03-26T04:52:57;100042.50;;;8.02;100.00
64243;BME280;50573;51.512;5.386;2023-03-26T05:03:26;100029.19;;;7.95;100.00
64243;BME280;50573;51.512;5.386;2023-03-26T05:13:38;100010.75;;;7.90;100.00
64243;BME280;50573;51.512;5.386;2023-03-26T05:23:46;100013.44;;;8.03;100.00
64243;BME280;50573;51.512;5.386;2023-03-26T05:33:56;99997.31;;;8.12;100.00
64243;BME280;50573;51.512;5.386;2023-03-26T05:44:01;99977.63;;;8.20;100.00
64243;BME280;50573;51.512;5.386;2023-03-26T05:54:06;99972.91;;;8.24;100.00
64243;BME280;50573;51.512;5.386;2023-03-26T06:04:35;99945.13;;;7.95;100.00
64243;BME280;50573;51.512;5.386;2023-03-26T06:15:01;99933.19;;;8.05;100.00
64243;BME280;50573;51.512;5.386;2023-03-26T06:25:24;99931.97;;;8.06;100.00
64243;BME280;50573;51.512;5.386;2023-03-26T06:35:43;99935.34;;;8.10;100.00
64243;BME280;50573;51.512;5.386;2023-03-26T06:45:49;99933.50;;;8.07;100.00
64243;BME280;50573;51.512;5.386;2023-03-26T06:56:12;99934.91;;;8.12;100.00
64243;BME280;50573;51.512;5.386;2023-03-26T07:06:47;99924.72;;;8.03;100.00
64243;BME280;50573;51.512;5.386;2023-03-26T07:17:11;99912.09;;;8.22;100.00
64243;BME280;50573;51.512;5.386;2023-03-26T07:27:35;99908.63;;;8.21;100.00
64243;BME280;50573;51.512;5.386;2023-03-26T07:37:48;99902.56;;;8.30;100.00
64243;BME280;50573;51.512;5.386;2023-03-26T07:48:14;99888.44;;;8.22;100.00
64243;BME280;50573;51.512;5.386;2023-03-26T07:58:50;99879.13;;;8.23;100.00
64243;BME280;50573;51.512;5.386;2023-03-26T08:09:16;99879.53;;;8.22;100.00
64243;BME280;50573;51.512;5.386;2023-03-26T08:19:57;99878.13;;;8.30;100.00
64243;BME280;50573;51.512;5.386;2023-03-26T08:30:10;99866.69;;;8.48;100.00
64243;BME280;50573;51.512;5.386;2023-03-26T08:40:32;99867.41;;;8.61;100.00
64243;BME280;50573;51.512;5.386;2023-03-26T08:51:21;99858.63;;;8.57;100.00
64243;BME280;50573;51.512;5.386;2023-03-26T09:33:55;99861.16;;;8.94;100.00
64243;BME280;50573;51.512;5.386;2023-03-26T09:44:31;99859.31;;;8.91;100.00
64243;BME280;50573;51.512;5.386;2023-03-26T10:05:43;99864.19;;;8.75;100.00
64243;BME280;50573;51.512;5.386;2023-03-26T10:16:05;99881.16;;;8.88;100.00
64243;BME280;50573;51.512;5.386;2023-03-26T10:26:26;99871.06;;;8.88;100.00
64243;BME280;50573;51.512;5.386;2023-03-26T10:36:35;99874.41;;;8.92;100.00
64243;BME280;50573;51.512;5.386;2023-03-26T10:46:51;99881.47;;;9.11;100.00
64243;BME280;50573;51.512;5.386;2023-03-26T10:57:05;99888.72;;;9.14;100.00
64243;BME280;50573;51.512;5.386;2023-03-26T11:07:18;99892.53;;;9.17;100.00
64243;BME280;50573;51.512;5.386;2023-03-26T11:17:33;99891.59;;;9.41;100.00
64243;BME280;50573;51.512;5.386;2023-03-26T11:27:52;99912.38;;;9.35;100.00
64243;BME280;50573;51.512;5.386;2023-03-26T11:38:03;99913.06;;;9.48;100.00
64243;BME280;50573;51.512;5.386;2023-03-26T11:48:12;99928.09;;;9.71;100.00
64243;BME280;50573;51.512;5.386;2023-03-26T11:58:24;99928.50;;;9.91;100.00
64243;BME280;50573;51.512;5.386;2023-03-26T12:08:34;99932.16;;;9.66;100.00
64243;BME280;50573;51.512;5.386;2023-03-26T12:18:45;99935.19;;;9.59;100.00
64243;BME280;50573;51.512;5.386;2023-03-26T12:28:50;99942.91;;;9.70;100.00
64243;BME280;50573;51.512;5.386;2023-03-26T12:38:53;99955.34;;;9.80;100.00
64243;BME280;50573;51.512;5.386;2023-03-26T12:49:19;99963.69;;;9.86;100.00
64243;BME280;50573;51.512;5.386;2023-03-26T12:59:29;99960.22;;;9.85;100.00
64243;BME280;50573;51.512;5.386;2023-03-26T13:10:07;99966.00;;;10.05;100.00
64243;BME280;50573;51.512;5.386;2023-03-26T13:20:16;99975.31;;;10.17;100.00
64243;BME280;50573;51.512;5.386;2023-03-26T13:30:30;99976.75;;;9.69;100.00
64243;BME280;50573;51.512;5.386;2023-03-26T13:40:45;99984.59;;;9.67;100.00
64243;BME280;50573;51.512;5.386;2023-03-26T13:51:00;100002.72;;;9.39;100.00
64243;BME280;50573;51.512;5.386;2023-03-26T14:01:07;100026.94;;;8.91;100.00
64243;BME280;50573;51.512;5.386;2023-03-26T14:11:16;100023.97;;;8.98;100.00
64243;BME280;50573;51.512;5.386;2023-03-26T14:21:32;100044.56;;;8.86;100.00
64243;BME280;50573;51.512;5.386;2023-03-26T14:31:41;100067.59;;;8.69;100.00
64243;BME280;50573;51.512;5.386;2023-03-26T14:41:54;100070.09;;;8.51;100.00
64243;BME280;50573;51.512;5.386;2023-03-26T14:52:07;100093.66;;;8.41;100.00
64243;BME280;50573;51.512;5.386;2023-03-26T15:13:14;100122.78;;;8.54;100.00
64243;BME280;50573;51.512;5.386;2023-03-26T15:34:45;100167.16;;;8.72;100.00
64243;BME280;50573;51.512;5.386;2023-03-26T15:45:02;100182.72;;;8.72;100.00
64243;BME280;50573;51.512;5.386;2023-03-26T15:55:27;100200.19;;;8.46;100.00
64243;BME280;50573;51.512;5.386;2023-03-26T16:05:42;100225.81;;;8.57;100.00
64243;BME280;50573;51.512;5.386;2023-03-26T16:15:49;100236.34;;;8.68;100.00
64243;BME280;50573;51.512;5.386;2023-03-26T16:26:07;100264.56;;;8.58;100.00
64243;BME280;50573;51.512;5.386;2023-03-26T16:36:29;100293.22;;;8.46;98.00
64243;BME280;50573;51.512;5.386;2023-03-26T16:46:42;100317.66;;;8.30;95.48
64243;BME280;50573;51.512;5.386;2023-03-26T16:56:57;100347.44;;;8.17;92.95
64243;BME280;50573;51.512;5.386;2023-03-26T17:07:11;100370.66;;;8.02;91.82
64243;BME280;50573;51.512;5.386;2023-03-26T17:17:30;100392.78;;;7.85;91.80
64243;BME280;50573;51.512;5.386;2023-03-26T17:27:45;100427.09;;;7.75;91.05
64243;BME280;50573;51.512;5.386;2023-03-26T17:37:52;100452.75;;;7.71;90.05
64243;BME280;50573;51.512;5.386;2023-03-26T17:47:56;100482.06;;;7.60;89.73
64243;BME280;50573;51.512;5.386;2023-03-26T17:58:03;100506.38;;;7.44;85.56
64243;BME280;50573;51.512;5.386;2023-03-26T18:08:22;100521.81;;;7.27;84.51
64243;BME280;50573;51.512;5.386;2023-03-26T18:18:33;100545.47;;;7.23;86.38
64243;BME280;50573;51.512;5.386;2023-03-26T18:28:41;100573.66;;;7.06;83.89
64243;BME280;50573;51.512;5.386;2023-03-26T18:38:46;100600.84;;;6.99;80.67
64243;BME280;50573;51.512;5.386;2023-03-26T18:48:50;100616.88;;;6.90;78.24
64243;BME280;50573;51.512;5.386;2023-03-26T18:58:58;100639.63;;;6.69;75.58
64243;BME280;50573;51.512;5.386;2023-03-26T19:09:03;100671.88;;;6.57;76.59
64243;BME280;50573;51.512;5.386;2023-03-26T19:19:24;100686.66;;;6.49;74.83
64243;BME280;50573;51.512;5.386;2023-03-26T19:29:30;100711.91;;;6.39;73.33
64243;BME280;50573;51.512;5.386;2023-03-26T19:39:39;100735.09;;;6.40;72.56
64243;BME280;50573;51.512;5.386;2023-03-26T19:49:49;100753.72;;;6.34;72.82
64243;BME280;50573;51.512;5.386;2023-03-26T19:59:55;100781.19;;;6.29;73.81
64243;BME280;50573;51.512;5.386;2023-03-26T20:09:59;100805.25;;;6.24;72.13
64243;BME280;50573;51.512;5.386;2023-03-26T20:20:07;100816.50;;;6.19;71.02
64243;BME280;50573;51.512;5.386;2023-03-26T20:30:14;100836.28;;;6.09;69.73
64243;BME280;50573;51.512;5.386;2023-03-26T20:40:35;100865.81;;;5.86;72.01
64243;BME280;50573;51.512;5.386;2023-03-26T20:50:40;100870.97;;;5.66;74.20
64243;BME280;50573;51.512;5.386;2023-03-26T21:00:52;100881.16;;;5.44;76.62
64243;BME280;50573;51.512;5.386;2023-03-26T21:10:58;100910.22;;;5.19;77.57
64243;BME280;50573;51.512;5.386;2023-03-26T21:21:21;100932.25;;;5.04;78.26
64243;BME280;50573;51.512;5.386;2023-03-26T21:31:29;100949.66;;;4.89;79.73
64243;BME280;50573;51.512;5.386;2023-03-26T21:41:43;100973.94;;;4.78;80.26
64243;BME280;50573;51.512;5.386;2023-03-26T21:51:47;100996.69;;;4.77;80.70
64243;BME280;50573;51.512;5.386;2023-03-26T22:01:58;101016.38;;;4.67;80.92
64243;BME280;50573;51.512;5.386;2023-03-26T22:12:04;101027.94;;;4.43;81.27
64243;BME280;50573;51.512;5.386;2023-03-26T22:22:09;101031.38;;;4.37;82.33
64243;BME280;50573;51.512;5.386;2023-03-26T22:32:13;101062.56;;;4.20;82.62
64243;BME280;50573;51.512;5.386;2023-03-26T22:42:17;101074.47;;;4.05;83.50
64243;BME280;50573;51.512;5.386;2023-03-26T22:52:21;101095.19;;;3.83;84.94
64243;BME280;50573;51.512;5.386;2023-03-26T23:02:25;101101.63;;;3.61;86.10
64243;BME280;50573;51.512;5.386;2023-03-26T23:12:28;101122.69;;;3.42;86.91
64243;BME280;50573;51.512;5.386;2023-03-26T23:22:33;101147.66;;;3.35;88.26
64243;BME280;50573;51.512;5.386;2023-03-26T23:32:36;101165.44;;;3.54;88.02
64243;BME280;50573;51.512;5.386;2023-03-26T23:42:40;101178.22;;;3.67;89.54
64243;BME280;50573;51.512;5.386;2023-03-26T23:52:43;101194.09;;;3.83;89.63
